Time;durP1;ratioP1;P1;durP2;ratioP2;P2;SDS_P1;SDS_P2;PMS_P1;PMS_P2;Temp;Humidity;BMP_temperature;BMP_pressure;BME280_temperature;BME280_humidity;BME280_pressure;Samples;Min_cycle;Max_cycle;Signal;HPM_P1;HPM_P2
2024/04/19 00:01:25;;;;;;;13.27;12.87;;;;;;;;;;5450199;26;20466;-70
2024/04/19 00:03:56;;;;;;;12.77;12.37;;;;;;;;;;5449963;26;20521;-67
2024/04/19 00:06:22;;;;;;;12.80;12.40;;;;;;;;;;5448531;26;20603;-70
2024/04/19 00:08:51;;;;;;;12.97;12.57;;;;;;;;;;5451815;26;20621;-68
2024/04/19 00:11:17;;;;;;;12.77;12.37;;;;;;;;;;5451292;26;21093;-69
2024/04/19 00:13:46;;;;;;;12.70;12.30;;;;;;;;;;5449233;26;21067;-70
2024/04/19 00:16:12;;;;;;;13.20;12.80;;;;;;;;;;5452516;25;21000;-68
2024/04/19 00:18:41;;;;;;;14.17;13.67;;;;;;;;;;5451444;26;20472;-68
2024/04/19 00:21:11;;;;;;;15.60;15.00;;;;;;;;;;5453078;26;20482;-69
2024/04/19 00:23:40;;;;;;;15.93;15.23;;;;;;;;;;5450910;26;20540;-68
2024/04/19 00:26:06;;;;;;;16.83;16.13;;;;;;;;;;5451543;26;20476;-70
2024/04/19 00:28:35;;;;;;;17.80;17.00;;;;;;;;;;5453252;26;20481;-69
2024/04/19 00:31:02;;;;;;;17.50;16.70;;;;;;;;;;5448057;25;20543;-70
2024/04/19 00:33:31;;;;;;;17.53;16.73;;;;;;;;;;5454850;26;20956;-69
2024/04/19 00:35:57;;;;;;;16.73;16.03;;;;;;;;;;5452732;26;20481;-69
2024/04/19 00:38:28;;;;;;;16.30;15.60;;;;;;;;;;5448955;26;20583;-69
2024/04/19 00:40:54;;;;;;;16.70;16.00;;;;;;;;;;5446667;26;20970;-69
2024/04/19 00:43:24;;;;;;;16.47;15.77;;;;;;;;;;5451604;25;20454;-70
2024/04/19 00:45:51;;;;;;;15.97;15.30;;;;;;;;;;5453579;26;20528;-70
2024/04/19 00:48:21;;;;;;;17.00;16.30;;;;;;;;;;5453967;26;20465;-69
2024/04/19 00:50:48;;;;;;;16.50;15.80;;;;;;;;;;5451022;26;20474;-71
2024/04/19 00:53:18;;;;;;;17.00;16.30;;;;;;;;;;5452563;26;20902;-69
2024/04/19 00:55:48;;;;;;;17.03;16.23;;;;;;;;;;5450032;26;20577;-69
2024/04/19 00:58:17;;;;;;;17.63;16.83;;;;;;;;;;5507204;26;20479;-70
2024/04/19 01:00:45;;;;;;;17.60;16.80;;;;;;;;;;5509836;26;20521;-68
2024/04/19 01:03:14;;;;;;;17.80;17.00;;;;;;;;;;5516035;26;20481;-69
2024/04/19 01:05:41;;;;;;;17.20;16.40;;;;;;;;;;5506147;26;20541;-69
2024/04/19 01:08:10;;;;;;;17.50;16.70;;;;;;;;;;5494343;26;20886;-68
2024/04/19 01:10:37;;;;;;;17.07;16.27;;;;;;;;;;5499803;25;20533;-68
2024/04/19 01:13:10;;;;;;;17.37;16.57;;;;;;;;;;5520415;26;20474;-69
2024/04/19 01:15:37;;;;;;;16.50;15.80;;;;;;;;;;5497153;26;21051;-69
2024/04/19 01:18:06;;;;;;;17.20;16.40;;;;;;;;;;5507464;26;20510;-68
2024/04/19 01:20:33;;;;;;;19.10;18.10;;;;;;;;;;5499470;26;20528;-68
2024/04/19 01:23:02;;;;;;;20.20;19.00;;;;;;;;;;5511407;26;20465;-68
2024/04/19 01:25:32;;;;;;;20.77;19.47;;;;;;;;;;5493039;26;21065;-68
2024/04/19 01:28:04;;;;;;;20.23;18.93;;;;;;;;;;5496642;26;21028;-68
2024/04/19 01:30:30;;;;;;;20.77;19.47;;;;;;;;;;5514734;26;20537;-69
2024/04/19 01:32:59;;;;;;;19.93;18.73;;;;;;;;;;5514274;26;20476;-70
2024/04/19 01:35:26;;;;;;;20.40;19.10;;;;;;;;;;5516567;26;20521;-69
2024/04/19 01:37:55;;;;;;;19.93;18.73;;;;;;;;;;5526516;25;20521;-69
2024/04/19 01:40:22;;;;;;;19.50;18.40;;;;;;;;;;5492957;26;20534;-68
2024/04/19 01:42:51;;;;;;;19.17;18.17;;;;;;;;;;5500845;26;20477;-70
2024/04/19 01:45:20;;;;;;;19.40;18.40;;;;;;;;;;5500124;26;20532;-68
2024/04/19 01:47:48;;;;;;;19.10;18.13;;;;;;;;;;5505600;26;20525;-68
2024/04/19 01:50:16;;;;;;;18.47;17.57;;;;;;;;;;5517367;26;20570;-68
2024/04/19 01:52:46;;;;;;;18.07;17.17;;;;;;;;;;5503509;26;21017;-70
2024/04/19 01:55:14;;;;;;;18.47;17.57;;;;;;;;;;5503594;26;20480;-69
2024/04/19 01:57:44;;;;;;;18.07;17.27;;;;;;;;;;5503648;26;21003;-68
2024/04/19 02:00:12;;;;;;;18.73;17.83;;;;;;;;;;5517564;25;20464;-69
2024/04/19 02:02:44;;;;;;;18.60;17.70;;;;;;;;;;5517972;25;20529;-69
2024/04/19 02:05:10;;;;;;;17.60;16.80;;;;;;;;;;5510472;26;20515;-68
2024/04/19 02:07:41;;;;;;;17.93;17.13;;;;;;;;;;5498181;26;20530;-68
2024/04/19 02:10:07;;;;;;;17.80;17.00;;;;;;;;;;5521197;26;20470;-68
2024/04/19 02:12:36;;;;;;;17.27;16.57;;;;;;;;;;5504904;26;20482;-71
2024/04/19 02:15:03;;;;;;;17.10;16.40;;;;;;;;;;5508017;26;20622;-68
2024/04/19 02:17:32;;;;;;;17.43;16.73;;;;;;;;;;5517493;26;20579;-68
2024/04/19 02:20:02;;;;;;;16.37;15.77;;;;;;;;;;5496109;26;20464;-69
2024/04/19 02:22:30;;;;;;;16.93;16.23;;;;;;;;;;5502500;26;20469;-69
2024/04/19 02:24:59;;;;;;;17.50;16.80;;;;;;;;;;5508485;26;20859;-69
2024/04/19 02:32:59;;;;;;;16.63;15.93;;;;;;;;;;5523476;26;20907;-69
2024/04/19 02:35:31;;;;;;;16.77;16.10;;;;;;;;;;5513103;25;20583;-70
2024/04/19 02:38:00;;;;;;;15.97;15.37;;;;;;;;;;5504664;26;21080;-68
2024/04/19 02:40:30;;;;;;;16.13;15.53;;;;;;;;;;5517016;26;20461;-68
2024/04/19 02:42:59;;;;;;;16.77;16.07;;;;;;;;;;5509497;26;20869;-68
2024/04/19 02:45:29;;;;;;;15.80;15.20;;;;;;;;;;5498441;26;20525;-69
2024/04/19 02:47:58;;;;;;;17.00;16.30;;;;;;;;;;5505460;25;20873;-68
2024/04/19 02:50:27;;;;;;;16.50;15.80;;;;;;;;;;5499891;25;20875;-67
2024/04/19 02:52:59;;;;;;;16.13;15.53;;;;;;;;;;5518550;26;20460;-68
2024/04/19 02:55:28;;;;;;;15.93;15.33;;;;;;;;;;5505530;26;21067;-68
2024/04/19 02:57:57;;;;;;;16.20;15.53;;;;;;;;;;5508812;26;21713;-68
2024/04/19 03:00:26;;;;;;;16.57;15.87;;;;;;;;;;5506537;25;20880;-67
2024/04/19 03:02:57;;;;;;;16.20;15.50;;;;;;;;;;5520303;26;20472;-68
2024/04/19 03:05:27;;;;;;;16.73;16.07;;;;;;;;;;5502723;26;20526;-67
2024/04/19 03:07:59;;;;;;;16.90;16.20;;;;;;;;;;5493068;26;20590;-68
2024/04/19 03:10:28;;;;;;;16.60;15.90;;;;;;;;;;5495951;26;20504;-69
2024/04/19 03:12:57;;;;;;;16.80;16.10;;;;;;;;;;5488701;26;20458;-69
2024/04/19 03:15:25;;;;;;;16.80;16.10;;;;;;;;;;5504956;26;20533;-68
2024/04/19 03:17:54;;;;;;;16.07;15.47;;;;;;;;;;5494768;26;20500;-68
2024/04/19 03:20:23;;;;;;;16.40;15.80;;;;;;;;;;5519667;26;21075;-68
2024/04/19 03:22:52;;;;;;;16.47;15.87;;;;;;;;;;5501679;25;20553;-68
2024/04/19 03:25:23;;;;;;;16.50;15.90;;;;;;;;;;5519857;26;20585;-68
2024/04/19 03:27:52;;;;;;;15.87;15.27;;;;;;;;;;5502998;26;20469;-68
2024/04/19 03:30:33;;;;;;;16.07;15.47;;;;;;;;;;5519675;26;20523;-68
2024/04/19 03:33:02;;;;;;;16.27;15.67;;;;;;;;;;5504523;25;20510;-68
2024/04/19 03:35:30;;;;;;;16.43;15.83;;;;;;;;;;5514255;26;20450;-68
2024/04/19 03:37:59;;;;;;;16.53;15.93;;;;;;;;;;5512623;26;20481;-68
2024/04/19 03:40:31;;;;;;;16.83;16.23;;;;;;;;;;5502058;26;21073;-69
2024/04/19 03:42:59;;;;;;;16.27;15.67;;;;;;;;;;5503928;26;20529;-68
2024/04/19 03:45:41;;;;;;;16.77;16.17;;;;;;;;;;5505157;25;20476;-69
2024/04/19 03:48:11;;;;;;;16.60;16.00;;;;;;;;;;5518919;26;20550;-68
2024/04/19 03:50:40;;;;;;;15.90;15.40;;;;;;;;;;5511426;26;20532;-69
2024/04/19 03:53:09;;;;;;;14.90;14.40;;;;;;;;;;5512981;25;20484;-69
2024/04/19 03:55:40;;;;;;;14.17;13.77;;;;;;;;;;5519723;25;20501;-69
2024/04/19 03:58:09;;;;;;;14.53;14.13;;;;;;;;;;5498610;25;20556;-68
2024/04/19 04:00:39;;;;;;;14.33;13.93;;;;;;;;;;5502998;26;20474;-68
2024/04/19 04:03:06;;;;;;;14.17;13.77;;;;;;;;;;5492416;26;20475;-70
2024/04/19 04:05:36;;;;;;;14.30;13.90;;;;;;;;;;5502434;25;20476;-68
2024/04/19 04:08:05;;;;;;;14.73;14.33;;;;;;;;;;5509965;25;20472;-68
2024/04/19 04:10:34;;;;;;;14.63;14.23;;;;;;;;;;5498947;26;20609;-68
2024/04/19 04:13:06;;;;;;;15.50;15.00;;;;;;;;;;5510683;26;20452;-68
2024/04/19 04:15:35;;;;;;;14.67;14.27;;;;;;;;;;5502724;26;20482;-69
2024/04/19 04:18:01;;;;;;;14.20;13.80;;;;;;;;;;5497289;26;20465;-69
2024/04/19 04:20:30;;;;;;;14.47;14.07;;;;;;;;;;5502496;26;20531;-70
2024/04/19 04:22:59;;;;;;;14.70;14.30;;;;;;;;;;5477571;25;20547;-70
2024/04/19 04:25:28;;;;;;;14.57;14.17;;;;;;;;;;5462550;26;20471;-70
2024/04/19 04:27:57;;;;;;;15.13;14.63;;;;;;;;;;5456511;26;20491;-70
2024/04/19 04:30:28;;;;;;;14.90;14.40;;;;;;;;;;5470140;26;20531;-70
2024/04/19 04:32:57;;;;;;;14.50;14.10;;;;;;;;;;5464642;26;20509;-70
2024/04/19 04:35:26;;;;;;;13.97;13.57;;;;;;;;;;5462577;26;20542;-69
2024/04/19 04:37:54;;;;;;;14.57;14.17;;;;;;;;;;5472076;26;20473;-69
2024/04/19 04:40:23;;;;;;;14.57;14.17;;;;;;;;;;5467773;26;20477;-69
2024/04/19 04:42:52;;;;;;;14.50;14.10;;;;;;;;;;5472386;26;20475;-70
2024/04/19 04:45:21;;;;;;;15.20;14.70;;;;;;;;;;5477746;26;20523;-70
2024/04/19 04:47:52;;;;;;;15.10;14.60;;;;;;;;;;5461805;26;20486;-69
2024/04/19 04:50:23;;;;;;;14.93;14.43;;;;;;;;;;5478625;26;20517;-69
2024/04/19 04:52:53;;;;;;;13.93;13.53;;;;;;;;;;5483299;26;20551;-68
2024/04/19 04:55:22;;;;;;;14.63;14.23;;;;;;;;;;5470477;26;20482;-70
2024/04/19 04:57:51;;;;;;;14.30;13.90;;;;;;;;;;5480739;26;20538;-70
2024/04/19 05:00:20;;;;;;;14.90;14.40;;;;;;;;;;5469750;26;20539;-70
2024/04/19 05:02:49;;;;;;;14.73;14.33;;;;;;;;;;5475944;26;20526;-69
2024/04/19 05:05:20;;;;;;;13.90;13.50;;;;;;;;;;5460933;26;21159;-70
2024/04/19 05:07:50;;;;;;;13.23;12.90;;;;;;;;;;5455553;26;20547;-69
2024/04/19 05:10:20;;;;;;;14.57;14.17;;;;;;;;;;5470383;26;20974;-70
2024/04/19 05:12:48;;;;;;;13.40;13.00;;;;;;;;;;5466329;26;21063;-68
2024/04/19 05:15:17;;;;;;;13.90;13.50;;;;;;;;;;5471040;26;20554;-70
2024/04/19 05:17:46;;;;;;;13.70;13.30;;;;;;;;;;5470903;26;20673;-69
2024/04/19 05:20:15;;;;;;;13.77;13.37;;;;;;;;;;5475618;26;20487;-69
2024/04/19 05:22:46;;;;;;;13.53;13.13;;;;;;;;;;5485379;26;20480;-69
2024/04/19 05:25:15;;;;;;;13.13;12.83;;;;;;;;;;5501873;26;21106;-68
2024/04/19 05:27:44;;;;;;;13.00;12.70;;;;;;;;;;5520557;26;20544;-70
2024/04/19 05:30:13;;;;;;;12.83;12.53;;;;;;;;;;5493142;26;20820;-71
2024/04/19 05:32:42;;;;;;;12.30;12.00;;;;;;;;;;5487206;25;20557;-70
2024/04/19 05:35:10;;;;;;;13.50;13.10;;;;;;;;;;5499839;26;20540;-71
2024/04/19 05:37:40;;;;;;;12.57;12.27;;;;;;;;;;5502228;26;20593;-73
2024/04/19 05:40:12;;;;;;;12.53;12.23;;;;;;;;;;5505941;26;20522;-70
2024/04/19 05:42:41;;;;;;;12.70;12.40;;;;;;;;;;5500164;26;20470;-71
2024/04/19 05:45:10;;;;;;;12.53;12.23;;;;;;;;;;5501922;26;20614;-71
2024/04/19 05:47:39;;;;;;;12.90;12.60;;;;;;;;;;5502260;26;20542;-70
2024/04/19 05:50:08;;;;;;;12.27;11.97;;;;;;;;;;5496538;26;20490;-69
2024/04/19 05:52:38;;;;;;;11.90;11.60;;;;;;;;;;5493079;26;20542;-69
2024/04/19 05:55:07;;;;;;;12.40;12.10;;;;;;;;;;5502581;26;20484;-70
2024/04/19 05:57:39;;;;;;;11.67;11.37;;;;;;;;;;5506837;26;21009;-70
2024/04/19 06:00:08;;;;;;;11.30;11.10;;;;;;;;;;5498089;26;20501;-73
2024/04/19 06:02:37;;;;;;;11.43;11.20;;;;;;;;;;5506834;26;20602;-69
2024/04/19 06:05:06;;;;;;;10.80;10.60;;;;;;;;;;5488536;26;20480;-68
2024/04/19 06:07:35;;;;;;;10.93;10.73;;;;;;;;;;5503441;26;20610;-68
2024/04/19 06:10:05;;;;;;;11.40;11.20;;;;;;;;;;5503840;26;20528;-68
2024/04/19 06:12:34;;;;;;;11.10;10.90;;;;;;;;;;5505917;26;20593;-68
2024/04/19 06:15:06;;;;;;;11.10;10.90;;;;;;;;;;5507680;26;20530;-68
2024/04/19 06:17:35;;;;;;;10.40;10.20;;;;;;;;;;5514820;26;20484;-68
2024/04/19 06:20:03;;;;;;;10.07;9.87;;;;;;;;;;5497512;25;20521;-70
2024/04/19 06:22:32;;;;;;;9.33;9.13;;;;;;;;;;5503528;26;20516;-69
2024/04/19 06:25:01;;;;;;;9.80;9.60;;;;;;;;;;5498690;26;20484;-71
2024/04/19 06:27:30;;;;;;;9.77;9.57;;;;;;;;;;5511578;26;20516;-71
2024/04/19 06:29:58;;;;;;;9.57;9.37;;;;;;;;;;5504986;26;20948;-70
2024/04/19 06:32:30;;;;;;;9.80;9.60;;;;;;;;;;5502412;26;20532;-70
2024/04/19 06:34:59;;;;;;;10.40;10.20;;;;;;;;;;5516346;26;20591;-70
2024/04/19 06:37:27;;;;;;;10.03;9.83;;;;;;;;;;5509032;26;20564;-69
2024/04/19 06:39:56;;;;;;;10.27;10.07;;;;;;;;;;5497205;26;20527;-70
2024/04/19 06:42:25;;;;;;;8.57;8.47;;;;;;;;;;5502384;26;20625;-70
2024/04/19 06:44:54;;;;;;;9.13;9.03;;;;;;;;;;5490267;26;20484;-70
2024/04/19 06:47:22;;;;;;;8.73;8.63;;;;;;;;;;5503006;26;20555;-68
2024/04/19 06:49:54;;;;;;;8.93;8.83;;;;;;;;;;5495027;26;20499;-68
2024/04/19 06:52:22;;;;;;;8.33;8.23;;;;;;;;;;5511372;26;20944;-68
2024/04/19 06:54:51;;;;;;;8.03;7.93;;;;;;;;;;5495062;26;20522;-71
2024/04/19 06:57:20;;;;;;;9.13;9.03;;;;;;;;;;5500637;26;20617;-69
2024/04/19 06:59:49;;;;;;;9.60;9.40;;;;;;;;;;5495680;26;20478;-71
2024/04/19 07:02:18;;;;;;;8.10;8.00;;;;;;;;;;5494680;26;21067;-71
2024/04/19 07:04:46;;;;;;;8.87;8.77;;;;;;;;;;5500907;26;20581;-73
2024/04/19 07:07:18;;;;;;;8.70;8.60;;;;;;;;;;5501948;26;20929;-70
2024/04/19 07:09:47;;;;;;;9.20;9.07;;;;;;;;;;5499087;26;20481;-71
2024/04/19 07:12:16;;;;;;;9.07;8.97;;;;;;;;;;5494149;26;20489;-71
2024/04/19 07:14:44;;;;;;;8.43;8.33;;;;;;;;;;5514105;26;20607;-70
2024/04/19 07:17:13;;;;;;;8.57;8.47;;;;;;;;;;5501879;26;20521;-68
2024/04/19 07:19:42;;;;;;;8.73;8.63;;;;;;;;;;5505124;26;20471;-71
2024/04/19 07:22:11;;;;;;;8.97;8.87;;;;;;;;;;5508276;26;20601;-69
2024/04/19 07:24:42;;;;;;;9.17;9.07;;;;;;;;;;5489292;26;20480;-69
2024/04/19 07:27:12;;;;;;;8.87;8.77;;;;;;;;;;5512788;26;20462;-70
2024/04/19 07:29:40;;;;;;;10.00;9.80;;;;;;;;;;5499387;26;20523;-68
2024/04/19 07:32:09;;;;;;;9.60;9.40;;;;;;;;;;5506207;26;20650;-68
2024/04/19 07:34:38;;;;;;;8.83;8.73;;;;;;;;;;5518255;26;20468;-68
2024/04/19 07:37:07;;;;;;;8.80;8.70;;;;;;;;;;5497398;26;20462;-70
2024/04/19 07:39:36;;;;;;;8.87;8.77;;;;;;;;;;5487156;26;20531;-68
2024/04/19 07:42:08;;;;;;;9.00;8.90;;;;;;;;;;5499683;26;20940;-71
2024/04/19 07:44:36;;;;;;;8.33;8.23;;;;;;;;;;5508002;26;20552;-70
2024/04/19 07:47:07;;;;;;;8.60;8.50;;;;;;;;;;5494564;26;20544;-71
2024/04/19 07:49:35;;;;;;;8.40;8.30;;;;;;;;;;5509024;26;20575;-70
2024/04/19 07:52:04;;;;;;;8.73;8.63;;;;;;;;;;5509441;26;20610;-70
2024/04/19 07:54:33;;;;;;;9.47;9.27;;;;;;;;;;5502477;26;20481;-67
2024/04/19 07:57:02;;;;;;;10.03;9.83;;;;;;;;;;5503097;26;20481;-68
2024/04/19 07:59:33;;;;;;;11.03;10.83;;;;;;;;;;5501996;26;20922;-68
2024/04/19 08:02:02;;;;;;;10.70;10.50;;;;;;;;;;5510412;26;20477;-70
2024/04/19 08:04:31;;;;;;;10.20;10.00;;;;;;;;;;5506662;26;20524;-69
2024/04/19 08:07:00;;;;;;;11.17;10.97;;;;;;;;;;5499320;26;20560;-68
2024/04/19 08:09:30;;;;;;;10.50;10.30;;;;;;;;;;5506234;26;20590;-67
2024/04/19 08:11:59;;;;;;;11.07;10.87;;;;;;;;;;5506186;26;20472;-69
2024/04/19 08:14:29;;;;;;;10.67;10.47;;;;;;;;;;5516304;26;20597;-69
2024/04/19 08:17:01;;;;;;;10.97;10.77;;;;;;;;;;5502550;26;20551;-70
2024/04/19 08:19:30;;;;;;;10.70;10.50;;;;;;;;;;5501136;26;20482;-70
2024/04/19 08:21:58;;;;;;;10.50;10.30;;;;;;;;;;5500506;26;20830;-70
2024/04/19 08:24:28;;;;;;;11.93;11.63;;;;;;;;;;5516659;26;20584;-72
2024/04/19 08:26:57;;;;;;;12.40;12.10;;;;;;;;;;5496685;26;20510;-67
2024/04/19 08:29:25;;;;;;;11.83;11.53;;;;;;;;;;5500619;26;20485;-70
2024/04/19 08:31:54;;;;;;;10.67;10.47;;;;;;;;;;5503901;26;20465;-70
2024/04/19 08:34:25;;;;;;;11.17;10.97;;;;;;;;;;5501193;26;20584;-71
2024/04/19 08:36:54;;;;;;;11.80;11.50;;;;;;;;;;5497564;26;20526;-70
2024/04/19 08:39:23;;;;;;;13.23;12.83;;;;;;;;;;5508918;26;21151;-70
2024/04/19 08:41:52;;;;;;;13.10;12.80;;;;;;;;;;5507333;26;20470;-71
2024/04/19 08:44:22;;;;;;;12.10;11.80;;;;;;;;;;5507473;26;20457;-72
2024/04/19 08:46:51;;;;;;;11.83;11.53;;;;;;;;;;5513185;26;20470;-70
2024/04/19 08:49:20;;;;;;;12.27;11.97;;;;;;;;;;5498165;26;20493;-71
2024/04/19 08:51:52;;;;;;;13.03;12.73;;;;;;;;;;5514630;26;20474;-73
2024/04/19 08:54:20;;;;;;;13.27;12.90;;;;;;;;;;5514140;26;20485;-72
2024/04/19 08:56:50;;;;;;;12.33;12.03;;;;;;;;;;5511514;26;20549;-74
2024/04/19 08:59:19;;;;;;;12.10;11.80;;;;;;;;;;5501518;26;20478;-72
2024/04/19 09:01:48;;;;;;;12.83;12.53;;;;;;;;;;5510124;26;20560;-72
2024/04/19 09:04:17;;;;;;;12.17;11.87;;;;;;;;;;5492392;26;20494;-72
2024/04/19 09:06:46;;;;;;;12.37;12.07;;;;;;;;;;5493965;26;20554;-71
2024/04/19 09:09:18;;;;;;;13.67;13.27;;;;;;;;;;5498933;26;20510;-71
2024/04/19 09:11:48;;;;;;;14.03;13.63;;;;;;;;;;5496302;26;20482;-72
2024/04/19 09:14:18;;;;;;;14.27;13.87;;;;;;;;;;5519922;26;20515;-71
2024/04/19 09:16:47;;;;;;;13.30;12.90;;;;;;;;;;5501555;26;21047;-71
2024/04/19 09:19:15;;;;;;;11.90;11.60;;;;;;;;;;5516956;25;20542;-71
2024/04/19 09:21:44;;;;;;;13.53;13.13;;;;;;;;;;5506386;26;20600;-71
2024/04/19 09:24:13;;;;;;;13.00;12.70;;;;;;;;;;5500373;26;20476;-67
2024/04/19 09:26:44;;;;;;;13.93;13.53;;;;;;;;;;5513781;26;20606;-71
2024/04/19 09:29:13;;;;;;;12.50;12.20;;;;;;;;;;5515137;26;20471;-69
2024/04/19 09:31:45;;;;;;;12.83;12.53;;;;;;;;;;5503629;26;20470;-71
2024/04/19 09:34:18;;;;;;;12.63;12.33;;;;;;;;;;5497344;26;21049;-69
2024/04/19 09:36:49;;;;;;;13.50;13.10;;;;;;;;;;5511947;26;20517;-67
2024/04/19 09:39:18;;;;;;;13.03;12.63;;;;;;;;;;5506567;26;21158;-68
2024/04/19 09:41:51;;;;;;;12.70;12.40;;;;;;;;;;5506462;26;20624;-68
2024/04/19 09:44:22;;;;;;;12.10;11.80;;;;;;;;;;5511488;26;20475;-67
2024/04/19 09:46:52;;;;;;;13.03;12.63;;;;;;;;;;5497618;26;20496;-68
2024/04/19 09:49:22;;;;;;;13.50;13.10;;;;;;;;;;5501632;26;20489;-69
2024/04/19 09:51:51;;;;;;;15.70;15.10;;;;;;;;;;5507525;26;20511;-69
2024/04/19 09:54:23;;;;;;;16.30;15.70;;;;;;;;;;5513171;26;20479;-70
2024/04/19 09:56:58;;;;;;;14.67;14.17;;;;;;;;;;5515653;26;21017;-68
2024/04/19 09:59:27;;;;;;;14.10;13.70;;;;;;;;;;5499844;26;20467;-68
2024/04/19 10:01:58;;;;;;;12.37;12.07;;;;;;;;;;5501351;26;20491;-68
2024/04/19 10:04:29;;;;;;;12.30;12.00;;;;;;;;;;5507708;26;20477;-69
2024/04/19 10:06:58;;;;;;;12.27;11.97;;;;;;;;;;5517589;26;20489;-69
2024/04/19 10:09:28;;;;;;;12.40;12.10;;;;;;;;;;5506494;26;20523;-71
2024/04/19 10:12:00;;;;;;;15.23;14.73;;;;;;;;;;5497444;26;20475;-68
2024/04/19 10:14:29;;;;;;;15.97;15.37;;;;;;;;;;5496898;26;20561;-70
2024/04/19 10:16:58;;;;;;;14.97;14.47;;;;;;;;;;5519508;26;20520;-70
2024/04/19 10:19:30;;;;;;;15.07;14.57;;;;;;;;;;5501120;25;20569;-70
2024/04/19 10:21:59;;;;;;;14.33;13.83;;;;;;;;;;5510119;26;20598;-68
2024/04/19 10:24:26;;;;;;;14.10;13.60;;;;;;;;;;5507290;26;21092;-69
2024/04/19 10:26:56;;;;;;;13.73;13.23;;;;;;;;;;5509448;26;20539;-70
2024/04/19 10:29:28;;;;;;;14.00;13.50;;;;;;;;;;5499361;26;20467;-68
2024/04/19 10:31:57;;;;;;;13.30;12.90;;;;;;;;;;5508004;26;20481;-71
2024/04/19 10:34:27;;;;;;;13.70;13.20;;;;;;;;;;5492121;26;20492;-71
2024/04/19 10:36:55;;;;;;;13.77;13.27;;;;;;;;;;5501324;26;20566;-74
2024/04/19 10:39:24;;;;;;;12.83;12.43;;;;;;;;;;5509868;26;20539;-71
2024/04/19 10:41:55;;;;;;;13.70;13.20;;;;;;;;;;5494093;26;20541;-71
2024/04/19 10:44:24;;;;;;;13.60;13.10;;;;;;;;;;5500174;26;20528;-70
2024/04/19 10:46:56;;;;;;;14.50;14.00;;;;;;;;;;5510725;26;20574;-70
2024/04/19 10:49:25;;;;;;;14.20;13.70;;;;;;;;;;5489252;26;20504;-72
2024/04/19 10:51:54;;;;;;;14.50;14.00;;;;;;;;;;5499741;26;20943;-70
2024/04/19 10:54:23;;;;;;;14.23;13.73;;;;;;;;;;5500328;26;20467;-70
2024/04/19 10:56:51;;;;;;;14.63;14.13;;;;;;;;;;5499881;26;20591;-69
2024/04/19 10:59:20;;;;;;;14.27;13.77;;;;;;;;;;5496402;26;20893;-70
2024/04/19 11:01:49;;;;;;;14.13;13.63;;;;;;;;;;5499652;26;20540;-70
2024/04/19 11:04:20;;;;;;;14.40;13.90;;;;;;;;;;5514090;26;20561;-69
2024/04/19 11:07:04;;;;;;;13.57;13.17;;;;;;;;;;5495631;26;21612;-73
2024/04/19 11:09:33;;;;;;;14.07;13.57;;;;;;;;;;5516863;26;20532;-71
2024/04/19 11:12:02;;;;;;;13.80;13.30;;;;;;;;;;5498434;26;20969;-72
2024/04/19 11:14:30;;;;;;;15.50;14.90;;;;;;;;;;5506397;26;20639;-69
2024/04/19 11:16:59;;;;;;;16.97;16.27;;;;;;;;;;5495021;26;21076;-70
2024/04/19 11:19:32;;;;;;;17.27;16.47;;;;;;;;;;5509002;25;20521;-71
2024/04/19 11:22:01;;;;;;;17.17;16.37;;;;;;;;;;5512097;26;20978;-70
2024/04/19 11:24:33;;;;;;;14.33;13.83;;;;;;;;;;5499317;26;21083;-71
2024/04/19 11:27:02;;;;;;;14.70;14.20;;;;;;;;;;5505333;26;20468;-73
2024/04/19 11:29:31;;;;;;;14.83;14.33;;;;;;;;;;5515224;26;20466;-72
2024/04/19 11:32:00;;;;;;;13.33;12.93;;;;;;;;;;5489614;26;20906;-71
2024/04/19 11:34:33;;;;;;;13.90;13.50;;;;;;;;;;5510510;26;20471;-72
2024/04/19 11:37:03;;;;;;;14.30;13.80;;;;;;;;;;5499304;26;20466;-73
2024/04/19 11:39:33;;;;;;;14.07;13.67;;;;;;;;;;5497311;26;20469;-73
2024/04/19 11:42:02;;;;;;;14.10;13.70;;;;;;;;;;5509044;26;21257;-71
2024/04/19 11:44:30;;;;;;;12.33;12.03;;;;;;;;;;5494196;26;20534;-71
2024/04/19 11:47:05;;;;;;;12.70;12.40;;;;;;;;;;5494916;26;21427;-71
2024/04/19 11:49:37;;;;;;;13.47;13.07;;;;;;;;;;5506355;26;21054;-71
2024/04/19 11:52:08;;;;;;;13.83;13.43;;;;;;;;;;5510220;26;20578;-73
2024/04/19 11:54:37;;;;;;;13.00;12.60;;;;;;;;;;5513178;26;20860;-72
2024/04/19 11:57:06;;;;;;;13.70;13.30;;;;;;;;;;5501458;26;20514;-71
2024/04/19 11:59:35;;;;;;;14.77;14.27;;;;;;;;;;5508423;26;20468;-73
2024/04/19 12:02:04;;;;;;;14.70;14.20;;;;;;;;;;5503609;26;20497;-71
2024/04/19 12:04:33;;;;;;;14.50;14.00;;;;;;;;;;5501455;26;21454;-71
2024/04/19 12:07:04;;;;;;;14.53;14.03;;;;;;;;;;5497434;26;20528;-71
2024/04/19 12:09:34;;;;;;;13.30;12.90;;;;;;;;;;5512820;26;20573;-74
2024/04/19 12:12:04;;;;;;;13.43;13.03;;;;;;;;;;5506710;26;20473;-70
2024/04/19 12:14:34;;;;;;;13.60;13.20;;;;;;;;;;5503647;26;20534;-74
2024/04/19 12:17:03;;;;;;;13.60;13.20;;;;;;;;;;5496466;26;20471;-70
2024/04/19 12:19:32;;;;;;;13.07;12.67;;;;;;;;;;5492769;25;20532;-70
2024/04/19 12:22:01;;;;;;;15.00;14.47;;;;;;;;;;5495078;25;20528;-71
2024/04/19 12:24:34;;;;;;;15.60;15.00;;;;;;;;;;5511472;26;20524;-71
2024/04/19 12:27:04;;;;;;;14.93;14.33;;;;;;;;;;5512276;25;20517;-73
2024/04/19 12:29:33;;;;;;;14.03;13.53;;;;;;;;;;5502785;25;20465;-71
2024/04/19 12:32:03;;;;;;;13.93;13.43;;;;;;;;;;5508492;25;20615;-73
2024/04/19 12:34:31;;;;;;;14.27;13.77;;;;;;;;;;5501556;25;20482;-71
2024/04/19 12:37:01;;;;;;;14.53;14.03;;;;;;;;;;5514730;26;20462;-74
2024/04/19 12:39:32;;;;;;;14.83;14.23;;;;;;;;;;5500986;26;20473;-71
2024/04/19 12:42:01;;;;;;;14.93;14.33;;;;;;;;;;5500219;26;20917;-70
2024/04/19 12:44:30;;;;;;;16.30;15.60;;;;;;;;;;5512846;25;20472;-70
2024/04/19 12:46:58;;;;;;;15.40;14.80;;;;;;;;;;5508496;26;20609;-70
2024/04/19 12:49:27;;;;;;;15.30;14.70;;;;;;;;;;5510508;26;21274;-71
2024/04/19 12:51:57;;;;;;;17.00;16.20;;;;;;;;;;5511097;25;20456;-71
2024/04/19 12:54:26;;;;;;;16.97;16.17;;;;;;;;;;5496714;26;20484;-70
2024/04/19 12:56:57;;;;;;;17.40;16.60;;;;;;;;;;5510146;26;20611;-72
2024/04/19 12:59:26;;;;;;;17.57;16.70;;;;;;;;;;5507134;26;20889;-72
2024/04/19 13:01:55;;;;;;;16.80;16.00;;;;;;;;;;5511871;26;20469;-70
2024/04/19 13:04:24;;;;;;;17.17;16.37;;;;;;;;;;5504794;26;20590;-70
2024/04/19 13:06:52;;;;;;;16.87;16.07;;;;;;;;;;5505084;26;20871;-73
2024/04/19 13:09:21;;;;;;;16.60;15.80;;;;;;;;;;5490544;25;20481;-73
2024/04/19 13:11:50;;;;;;;16.70;15.90;;;;;;;;;;5483626;25;21082;-70
2024/04/19 13:14:23;;;;;;;17.23;16.43;;;;;;;;;;5508931;25;20470;-70
2024/04/19 13:16:52;;;;;;;15.30;14.70;;;;;;;;;;5500110;25;20664;-70
2024/04/19 13:19:21;;;;;;;18.70;17.70;;;;;;;;;;5506179;25;20530;-71
2024/04/19 13:21:50;;;;;;;16.10;15.30;;;;;;;;;;5495812;25;20473;-71
2024/04/19 13:24:20;;;;;;;15.10;14.40;;;;;;;;;;5502284;26;20516;-72
2024/04/19 13:26:50;;;;;;;14.40;13.80;;;;;;;;;;5506289;26;20473;-70
2024/04/19 13:29:19;;;;;;;13.90;13.40;;;;;;;;;;5505893;26;20533;-70
2024/04/19 13:31:53;;;;;;;13.50;13.00;;;;;;;;;;5501714;25;20476;-70
2024/04/19 13:34:23;;;;;;;13.60;13.10;;;;;;;;;;5500508;25;21083;-70
2024/04/19 13:36:52;;;;;;;12.70;12.30;;;;;;;;;;5498734;26;20509;-73
2024/04/19 13:39:22;;;;;;;13.80;13.30;;;;;;;;;;5512917;25;20532;-70
2024/04/19 13:41:52;;;;;;;13.07;12.67;;;;;;;;;;5501067;26;20724;-73
2024/04/19 13:44:20;;;;;;;14.43;13.93;;;;;;;;;;5497655;26;21132;-69
2024/04/19 13:46:52;;;;;;;14.10;13.60;;;;;;;;;;5499931;25;20508;-72
2024/04/19 13:49:22;;;;;;;15.20;14.60;;;;;;;;;;5502977;26;20465;-70
2024/04/19 13:51:51;;;;;;;14.80;14.20;;;;;;;;;;5500982;25;20482;-71
2024/04/19 13:54:20;;;;;;;15.23;14.63;;;;;;;;;;5499946;25;20482;-70
2024/04/19 13:56:50;;;;;;;15.63;15.00;;;;;;;;;;5513225;26;20973;-70
2024/04/19 13:59:20;;;;;;;16.13;15.43;;;;;;;;;;5509075;26;20473;-67
2024/04/19 14:01:52;;;;;;;16.93;16.13;;;;;;;;;;5499730;26;20508;-68
2024/04/19 14:04:21;;;;;;;17.13;16.33;;;;;;;;;;5519049;26;20528;-70
2024/04/19 14:06:50;;;;;;;17.40;16.53;;;;;;;;;;5497789;26;20967;-70
2024/04/19 14:09:19;;;;;;;17.07;16.27;;;;;;;;;;5511273;25;20490;-67
2024/04/19 14:11:48;;;;;;;16.77;15.97;;;;;;;;;;5516107;25;20462;-71
2024/04/19 14:14:19;;;;;;;17.23;16.43;;;;;;;;;;5509649;26;20539;-73
2024/04/19 14:16:48;;;;;;;17.50;16.60;;;;;;;;;;5498880;26;21035;-69
2024/04/19 14:19:22;;;;;;;17.80;16.90;;;;;;;;;;5495841;26;20543;-71
2024/04/19 14:21:52;;;;;;;17.17;16.27;;;;;;;;;;5507513;26;20532;-69
2024/04/19 14:24:21;;;;;;;17.73;16.83;;;;;;;;;;5501450;26;20527;-72
2024/04/19 14:26:50;;;;;;;16.17;15.37;;;;;;;;;;5514425;25;20473;-71
2024/04/19 14:29:19;;;;;;;15.30;14.60;;;;;;;;;;5514938;26;20528;-70
2024/04/19 14:31:48;;;;;;;14.73;14.13;;;;;;;;;;5512455;26;21905;-70
2024/04/19 14:34:20;;;;;;;14.47;13.93;;;;;;;;;;5506481;26;20877;-70
2024/04/19 14:36:49;;;;;;;15.10;14.50;;;;;;;;;;5506052;25;20526;-69